Time;durP1;ratioP1;P1;durP2;ratioP2;P2;SDS_P1;SDS_P2;PMS_P1;PMS_P2;Temp;Humidity;BMP_temperature;BMP_pressure;BME280_temperature;BME280_humidity;BME280_pressure;Samples;Min_cycle;Max_cycle;Signal;HPM_P1;HPM_P2
2022/06/25 00:01:15;;;;;;;6.00;1.20;;;;;;;20.41;52.26;99655.04;106796;1271;24238;-78
2022/06/25 00:03:47;;;;;;;4.10;1.30;;;;;;;20.40;52.36;99649.85;106709;1271;26001;-79
2022/06/25 00:06:19;;;;;;;7.40;1.20;;;;;;;20.39;52.43;99649.17;106800;1271;22534;-78
2022/06/25 00:08:51;;;;;;;4.70;1.30;;;;;;;20.38;52.59;99646.83;106674;1270;22538;-77
2022/06/25 00:14:13;;;;;;;6.60;1.30;;;;;;;20.37;52.65;99643.39;106793;1271;23823;-77
2022/06/25 00:16:44;;;;;;;8.10;1.40;;;;;;;20.38;52.78;99644.71;106688;1271;24236;-77
2022/06/25 00:19:15;;;;;;;4.60;1.40;;;;;;;20.37;52.71;99643.70;106679;1271;23157;-77
2022/06/25 00:21:47;;;;;;;10.60;1.40;;;;;;;20.38;52.85;99645.09;106683;1271;22528;-77
2022/06/25 00:24:18;;;;;;;7.20;1.40;;;;;;;20.37;52.95;99642.59;106760;1270;23958;-77
2022/06/25 00:26:50;;;;;;;4.80;1.40;;;;;;;20.37;52.90;99640.47;106738;1271;25250;-77
2022/06/25 00:29:21;;;;;;;10.00;1.80;;;;;;;20.37;53.05;99644.83;106732;1271;24216;-78
2022/06/25 00:31:52;;;;;;;6.90;1.60;;;;;;;20.37;53.09;99641.80;106716;1271;25431;-78
2022/06/25 00:34:25;;;;;;;5.80;1.50;;;;;;;20.37;53.18;99631.30;102768;1271;5426291;-78
2022/06/25 00:36:57;;;;;;;10.10;2.00;;;;;;;20.37;53.25;99628.35;106727;1271;22667;-77
2022/06/25 00:39:28;;;;;;;6.30;1.90;;;;;;;20.37;53.36;99635.52;106688;1270;25248;-77
2022/06/25 00:41:59;;;;;;;5.80;1.40;;;;;;;20.35;53.35;99636.39;106722;1271;24285;-78
2022/06/25 00:44:32;;;;;;;8.30;1.40;;;;;;;20.34;53.39;99632.57;106775;1271;22528;-78
2022/06/25 00:47:05;;;;;;;6.90;1.90;;;;;;;20.33;53.45;99633.31;106748;1271;25824;-77
2022/06/25 00:49:36;;;;;;;5.00;1.50;;;;;;;20.33;53.65;99630.48;106801;1271;23412;-77
2022/06/25 00:52:11;;;;;;;10.90;1.30;;;;;;;20.32;53.73;99630.21;106783;1271;22711;-78
2022/06/25 00:54:50;;;;;;;6.80;1.40;;;;;;;20.31;53.68;99631.16;106826;1271;25953;-77
2022/06/25 00:57:25;;;;;;;4.80;2.00;;;;;;;20.31;53.73;99630.96;106820;1271;23160;-78
2022/06/25 01:00:03;;;;;;;9.80;1.40;;;;;;;20.30;53.75;99633.12;106816;1271;22511;-78
2022/06/25 01:02:35;;;;;;;5.20;1.30;;;;;;;20.28;53.81;99633.98;106726;1271;24208;-77
2022/06/25 01:05:10;;;;;;;4.30;1.50;;;;;;;20.25;54.17;99668.23;106738;1271;25315;-77
2022/06/25 01:07:45;;;;;;;4.60;1.40;;;;;;;20.16;54.39;99679.40;106887;1271;22774;-78
2022/06/25 01:10:17;;;;;;;4.80;1.60;;;;;;;20.11;54.45;99668.73;106873;1271;23219;-77
2022/06/25 01:12:49;;;;;;;7.30;1.90;;;;;;;20.10;54.66;99636.60;106788;1271;26029;-77
2022/06/25 01:15:22;;;;;;;9.30;1.60;;;;;;;20.11;54.67;99631.98;106758;1271;26589;-78
2022/06/25 01:17:55;;;;;;;6.20;1.70;;;;;;;20.10;54.60;99639.02;106772;1271;22530;-78
2022/06/25 01:20:27;;;;;;;5.50;1.70;;;;;;;20.09;54.77;99635.70;106813;1271;25426;-78
2022/06/25 01:22:58;;;;;;;7.50;1.50;;;;;;;20.07;54.92;99640.70;106731;1271;22560;-78
2022/06/25 01:25:36;;;;;;;8.50;1.80;;;;;;;20.02;55.12;99653.94;106790;1271;22547;-78
2022/06/25 01:28:09;;;;;;;10.30;1.80;;;;;;;19.93;55.33;99657.55;106830;1271;22677;-78
2022/06/25 01:30:41;;;;;;;9.20;1.60;;;;;;;19.87;55.34;99654.27;106755;1271;23870;-78
2022/06/25 01:33:12;;;;;;;7.80;1.60;;;;;;;19.85;55.38;99649.27;106780;1271;24228;-78
2022/06/25 01:35:43;;;;;;;4.50;1.60;;;;;;;19.84;55.48;99649.91;106796;1270;22567;-77
2022/06/25 01:38:14;;;;;;;8.00;1.90;;;;;;;19.83;55.65;99646.08;106729;1270;24520;-77
2022/06/25 01:40:46;;;;;;;5.40;1.70;;;;;;;19.81;55.60;99638.16;106739;1270;22562;-77
2022/06/25 01:43:17;;;;;;;8.10;1.40;;;;;;;19.81;55.63;99639.54;106720;1271;24001;-77
2022/06/25 01:45:49;;;;;;;6.80;1.70;;;;;;;19.81;55.81;99633.62;106770;1270;22544;-77
2022/06/25 01:48:20;;;;;;;8.20;1.90;;;;;;;19.81;55.74;99635.27;106730;1271;22622;-77
2022/06/25 01:50:51;;;;;;;5.60;1.50;;;;;;;19.81;55.89;99634.82;106791;1271;22737;-78
2022/06/25 01:53:22;;;;;;;7.40;2.00;;;;;;;19.80;56.09;99642.52;106772;1270;25383;-78
2022/06/25 01:55:54;;;;;;;10.30;1.90;;;;;;;19.78;56.15;99652.36;106680;1270;22564;-78
2022/06/25 01:58:26;;;;;;;6.90;1.60;;;;;;;19.75;56.18;99658.48;106751;1271;22528;-78
2022/06/25 02:00:57;;;;;;;8.60;1.90;;;;;;;19.73;56.45;99662.65;106779;1271;22540;-78
2022/06/25 02:03:28;;;;;;;7.30;1.70;;;;;;;19.70;56.50;99670.52;106740;1270;26252;-77
2022/06/25 02:05:59;;;;;;;6.00;2.00;;;;;;;19.67;56.68;99670.41;106781;1271;22526;-77
2022/06/25 02:08:33;;;;;;;10.60;2.40;;;;;;;19.66;56.78;99668.37;106759;1271;22590;-77
2022/06/25 02:11:07;;;;;;;6.90;1.90;;;;;;;19.65;56.78;99662.95;106784;1270;22551;-78
2022/06/25 02:13:38;;;;;;;7.80;1.90;;;;;;;19.64;56.87;99663.89;106729;1270;22533;-77
2022/06/25 02:16:10;;;;;;;7.60;1.70;;;;;;;19.64;56.86;99663.86;106844;1270;22629;-78
2022/06/25 02:18:41;;;;;;;6.90;1.70;;;;;;;19.65;56.98;99673.15;106778;1271;22528;-78
2022/06/25 02:21:13;;;;;;;5.80;1.40;;;;;;;19.66;57.14;99669.68;106802;1271;25370;-78
2022/06/25 02:23:45;;;;;;;7.80;1.80;;;;;;;19.66;57.18;99663.23;106803;1258;83504;-52
2022/06/25 02:26:20;;;;;;;7.00;1.50;;;;;;;19.65;57.32;99659.71;106635;1270;22963;-50
2022/06/25 02:28:52;;;;;;;8.90;1.60;;;;;;;19.65;57.37;99659.55;106260;1270;24235;-51
2022/06/25 02:31:23;;;;;;;6.60;1.60;;;;;;;19.65;57.40;99663.72;106219;1270;22545;-50
2022/06/25 02:33:55;;;;;;;10.40;2.90;;;;;;;19.66;57.32;99670.66;106113;1270;26647;-50
2022/06/25 02:36:26;;;;;;;7.70;1.80;;;;;;;19.65;57.56;99674.17;106534;1270;24034;-52
2022/06/25 02:38:58;;;;;;;5.30;1.70;;;;;;;19.65;57.60;99678.45;106258;1270;25241;-50
2022/06/25 02:41:29;;;;;;;9.00;1.90;;;;;;;19.66;57.78;99676.63;109785;1270;22404;-52
2022/06/25 02:44:00;;;;;;;7.50;1.70;;;;;;;19.65;57.59;99676.33;107657;1270;25070;-50
2022/06/25 02:46:32;;;;;;;8.20;1.60;;;;;;;19.66;57.56;99677.91;106134;1271;22592;-50
2022/06/25 02:49:03;;;;;;;9.70;1.70;;;;;;;19.66;57.71;99676.81;106183;1270;22560;-51
2022/06/25 02:51:36;;;;;;;5.50;1.70;;;;;;;19.66;57.69;99676.96;106157;1270;22793;-53
2022/06/25 02:54:08;;;;;;;7.60;1.70;;;;;;;19.66;57.76;99676.98;106185;1271;22528;-49
2022/06/25 02:59:29;;;;;;;8.30;1.60;;;;;;;19.67;57.69;99677.20;106112;1270;22640;-50
2022/06/25 03:02:01;;;;;;;7.10;1.70;;;;;;;19.67;57.75;99679.14;106119;1270;22553;-50
2022/06/25 03:04:33;;;;;;;8.50;2.00;;;;;;;19.67;57.71;99678.30;106179;1270;22504;-49
2022/06/25 03:07:04;;;;;;;6.20;1.60;;;;;;;19.67;57.77;99677.77;106145;1270;22564;-49
2022/06/25 03:09:37;;;;;;;7.00;1.90;;;;;;;19.67;57.89;99677.27;106111;1271;24390;-52
2022/06/25 03:12:12;;;;;;;11.40;1.70;;;;;;;19.67;57.88;99680.98;106100;1270;24753;-49
2022/06/25 03:14:44;;;;;;;5.30;1.60;;;;;;;19.67;57.93;99681.14;106060;1270;22539;-50
2022/06/25 03:17:15;;;;;;;6.90;1.90;;;;;;;19.67;57.96;99684.38;106281;1270;23929;-52
2022/06/25 03:19:47;;;;;;;7.50;1.80;;;;;;;19.66;58.05;99685.16;106315;1271;22605;-50
2022/06/25 03:22:18;;;;;;;6.10;2.40;;;;;;;19.66;58.14;99688.25;106154;1271;22894;-50
2022/06/25 03:24:50;;;;;;;6.90;2.00;;;;;;;19.66;58.22;99689.23;106123;1270;22525;-50
2022/06/25 03:27:21;;;;;;;6.20;1.60;;;;;;;19.67;58.01;99694.73;106206;1271;22523;-50
2022/06/25 03:29:54;;;;;;;8.10;2.10;;;;;;;19.68;58.22;99699.64;106123;1271;22573;-51
2022/06/25 03:32:25;;;;;;;9.80;2.50;;;;;;;19.69;58.23;99702.44;106276;1271;25479;-51
2022/06/25 03:34:57;;;;;;;8.60;2.60;;;;;;;19.71;58.23;99705.02;106331;1270;25296;-50
2022/06/25 03:37:30;;;;;;;8.70;2.70;;;;;;;19.72;58.26;99707.84;106450;1271;22760;-50
2022/06/25 03:40:02;;;;;;;8.50;2.00;;;;;;;19.73;58.44;99709.04;106260;1271;24516;-49
2022/06/25 03:42:34;;;;;;;9.00;2.10;;;;;;;19.74;58.52;99709.31;106176;1271;22544;-58
2022/06/25 03:45:06;;;;;;;8.10;2.00;;;;;;;19.74;58.56;99713.44;106235;1271;25409;-51
2022/06/25 03:47:38;;;;;;;8.30;1.90;;;;;;;19.74;58.73;99722.23;106091;1271;22544;-52
2022/06/25 03:50:10;;;;;;;6.90;1.80;;;;;;;19.74;58.95;99735.48;106207;1270;22502;-53
2022/06/25 03:52:42;;;;;;;8.20;1.90;;;;;;;19.73;58.97;99734.46;106187;1271;22617;-50
2022/06/25 03:55:14;;;;;;;7.30;1.60;;;;;;;19.73;58.97;99742.35;106131;1271;22751;-52
2022/06/25 03:57:46;;;;;;;7.50;1.70;;;;;;;19.74;59.05;99750.67;106141;1271;25363;-50
2022/06/25 04:00:18;;;;;;;10.50;2.00;;;;;;;19.74;59.10;99753.65;106175;1271;25441;-51
2022/06/25 04:02:50;;;;;;;7.10;1.70;;;;;;;19.75;59.04;99750.12;106036;1271;22548;-50
2022/06/25 04:05:21;;;;;;;7.60;2.00;;;;;;;19.78;59.02;99752.62;106146;1271;22540;-49
2022/06/25 04:07:53;;;;;;;6.50;2.00;;;;;;;19.80;59.29;99753.01;106149;1270;22771;-50
2022/06/25 04:10:25;;;;;;;7.10;2.10;;;;;;;19.82;59.40;99754.77;106073;1271;22584;-50
2022/06/25 04:12:56;;;;;;;9.10;1.90;;;;;;;19.80;59.42;99764.64;106051;1271;24264;-53
2022/06/25 04:15:29;;;;;;;7.20;2.00;;;;;;;19.78;59.49;99763.73;106073;1271;22555;-50
2022/06/25 04:18:01;;;;;;;6.80;2.00;;;;;;;19.77;59.52;99769.13;106413;1270;24158;-50
2022/06/25 04:20:33;;;;;;;8.30;2.00;;;;;;;19.79;59.24;99759.70;106282;1270;25338;-51
2022/06/25 04:23:05;;;;;;;7.80;2.10;;;;;;;19.81;59.29;99759.90;106323;1271;22540;-50
2022/06/25 04:25:38;;;;;;;8.80;2.30;;;;;;;19.83;59.28;99756.30;106170;1271;23024;-53
2022/06/25 04:30:59;;;;;;;9.00;2.40;;;;;;;19.90;59.23;99756.67;106085;1271;25299;-50
2022/06/25 04:33:30;;;;;;;10.80;2.20;;;;;;;19.93;59.63;99761.31;106220;1271;25277;-51
2022/06/25 04:36:02;;;;;;;7.20;2.30;;;;;;;19.98;59.99;99760.02;106364;1271;25367;-50
2022/06/25 04:38:35;;;;;;;8.00;1.90;;;;;;;20.02;60.07;99753.52;106169;1271;22528;-51
2022/06/25 04:41:06;;;;;;;12.20;2.40;;;;;;;20.05;59.78;99750.15;106275;1271;22574;-50
2022/06/25 04:43:38;;;;;;;13.70;2.20;;;;;;;20.09;59.56;99758.94;106210;1271;22549;-49
2022/06/25 04:46:10;;;;;;;10.40;2.30;;;;;;;20.16;59.65;99758.04;106143;1271;22568;-50
2022/06/25 04:48:41;;;;;;;11.50;2.70;;;;;;;20.21;59.68;99761.11;106324;1271;22580;-52
2022/06/25 04:51:13;;;;;;;7.30;2.30;;;;;;;20.25;59.69;99762.91;106094;1271;25326;-51
2022/06/25 04:53:57;;;;;;;8.30;2.30;;;;;;;20.29;59.60;99763.48;106345;1271;24206;-50
2022/06/25 04:56:30;;;;;;;5.90;1.80;;;;;;;20.34;59.79;99770.34;106178;1271;22574;-51
2022/06/25 04:59:02;;;;;;;7.70;2.10;;;;;;;20.38;59.70;99773.27;106349;1271;22548;-50
2022/06/25 05:01:34;;;;;;;8.00;2.00;;;;;;;20.43;59.69;99780.90;106258;1271;22604;-50
2022/06/25 05:04:05;;;;;;;9.70;2.10;;;;;;;20.49;60.04;99781.15;106303;1270;23021;-51
2022/06/25 05:06:37;;;;;;;14.20;2.60;;;;;;;20.53;59.84;99782.84;106266;1271;22576;-49
2022/06/25 05:09:10;;;;;;;6.80;2.10;;;;;;;20.56;59.82;99780.48;106323;1271;25300;-52
2022/06/25 05:11:42;;;;;;;7.00;1.80;;;;;;;20.60;59.86;99784.89;106302;1271;23232;-52
2022/06/25 05:14:13;;;;;;;9.30;1.90;;;;;;;20.65;59.86;99790.13;106276;1270;22542;-50
2022/06/25 05:16:46;;;;;;;7.90;1.90;;;;;;;20.68;59.97;99797.33;106287;1270;22550;-49
2022/06/25 05:19:18;;;;;;;9.00;2.50;;;;;;;20.72;60.06;99800.98;106323;1271;24144;-51
2022/06/25 05:21:49;;;;;;;15.10;2.20;;;;;;;20.78;60.08;99798.81;106255;1271;22793;-51
2022/06/25 05:24:21;;;;;;;11.40;2.50;;;;;;;20.82;60.05;99794.52;106220;1270;25354;-50
2022/06/25 05:26:52;;;;;;;8.70;2.30;;;;;;;20.85;59.95;99798.02;106177;1271;25395;-53
2022/06/25 05:29:24;;;;;;;10.20;2.60;;;;;;;20.89;60.05;99797.70;106188;1271;23940;-50
2022/06/25 05:31:55;;;;;;;10.30;2.20;;;;;;;20.92;60.27;99809.27;106156;1271;22531;-49
2022/06/25 05:34:27;;;;;;;11.50;2.20;;;;;;;20.93;60.28;99804.71;106178;1270;24249;-52
2022/06/25 05:36:59;;;;;;;10.90;2.90;;;;;;;20.93;60.05;99803.56;106021;1271;22633;-52
2022/06/25 05:39:35;;;;;;;7.30;2.00;;;;;;;20.93;60.13;99810.38;106367;1271;22604;-54
2022/06/25 05:42:09;;;;;;;10.80;2.40;;;;;;;20.93;60.00;99820.95;106183;1271;22537;-53
2022/06/25 05:44:43;;;;;;;8.50;1.90;;;;;;;20.96;60.05;99828.55;106466;1270;22536;-52
2022/06/25 05:47:16;;;;;;;10.70;2.60;;;;;;;20.99;60.10;99837.92;106215;1271;25946;-53
2022/06/25 05:49:49;;;;;;;10.20;2.30;;;;;;;21.02;60.53;99842.86;106381;1271;22696;-50
2022/06/25 05:52:22;;;;;;;12.10;2.50;;;;;;;21.04;61.05;99841.36;106224;1270;25869;-50
2022/06/25 05:54:54;;;;;;;10.50;2.30;;;;;;;21.06;61.62;99837.34;106154;1271;27457;-49
2022/06/25 05:57:26;;;;;;;11.90;2.70;;;;;;;21.05;61.98;99838.95;106223;1270;22771;-50
2022/06/25 05:59:58;;;;;;;8.50;2.30;;;;;;;21.04;62.69;99829.37;106269;1270;22562;-50
2022/06/25 06:02:30;;;;;;;9.70;2.00;;;;;;;21.02;63.01;99827.69;106530;1271;24217;-50
2022/06/25 06:05:01;;;;;;;7.00;2.10;;;;;;;21.01;63.31;99819.11;106260;1271;22529;-52
2022/06/25 06:07:33;;;;;;;8.10;2.30;;;;;;;21.02;63.50;99818.07;106484;1270;22533;-52
2022/06/25 06:10:06;;;;;;;8.20;2.10;;;;;;;21.04;64.17;99814.54;106788;1271;23002;-52
2022/06/25 06:12:38;;;;;;;7.00;2.00;;;;;;;21.03;64.22;99816.09;106218;1271;24338;-51
2022/06/25 06:15:12;;;;;;;12.90;3.40;;;;;;;21.06;64.35;99811.89;106178;1271;25027;-50
2022/06/25 06:17:45;;;;;;;7.40;2.10;;;;;;;21.09;64.45;99812.14;106526;1270;22595;-52
2022/06/25 06:20:18;;;;;;;8.50;1.90;;;;;;;21.16;64.47;99817.00;106193;1271;22549;-51
2022/06/25 06:22:50;;;;;;;8.50;2.60;;;;;;;21.19;64.45;99822.16;106914;1270;24185;-51
2022/06/25 06:25:23;;;;;;;7.30;2.40;;;;;;;21.28;65.01;99821.42;106133;1270;23964;-51
2022/06/25 06:27:56;;;;;;;7.70;1.80;;;;;;;21.35;64.89;99823.20;106349;1271;25017;-49
2022/06/25 06:30:29;;;;;;;7.50;2.00;;;;;;;21.45;64.72;99823.66;106189;1271;24211;-54
2022/06/25 06:33:00;;;;;;;9.20;2.30;;;;;;;21.55;64.59;99828.31;106339;1270;23140;-50
2022/06/25 06:35:33;;;;;;;11.60;2.20;;;;;;;21.64;64.38;99831.39;106301;1270;22665;-53
2022/06/25 06:38:05;;;;;;;6.70;1.80;;;;;;;21.74;64.58;99834.16;106496;1270;22788;-50
2022/06/25 06:40:37;;;;;;;8.90;2.10;;;;;;;21.83;64.35;99836.52;106265;1270;22999;-50
2022/06/25 06:43:10;;;;;;;10.80;2.20;;;;;;;21.88;64.40;99835.91;106277;1271;25431;-52
2022/06/25 06:45:44;;;;;;;7.20;1.90;;;;;;;21.94;64.45;99836.95;106474;1270;22471;-53
2022/06/25 06:48:16;;;;;;;8.00;1.70;;;;;;;22.00;64.37;99833.65;105917;1271;23911;-54
2022/06/25 06:50:49;;;;;;;7.10;1.70;;;;;;;22.09;64.18;99835.50;105833;1271;24922;-49
2022/06/25 06:53:22;;;;;;;9.10;2.20;;;;;;;22.17;64.14;99838.53;105866;1271;22633;-53
2022/06/25 06:55:56;;;;;;;7.00;1.80;;;;;;;22.26;64.03;99837.23;106117;1271;22547;-50
2022/06/25 06:58:30;;;;;;;6.10;1.90;;;;;;;22.39;64.10;99836.99;106430;1271;22830;-53
2022/06/25 07:01:04;;;;;;;4.20;1.40;;;;;;;22.51;63.75;99832.77;106214;1270;23003;-53
2022/06/25 07:03:37;;;;;;;5.60;1.30;;;;;;;22.65;63.39;99839.52;106365;1270;24279;-55
2022/06/25 07:06:10;;;;;;;6.10;1.70;;;;;;;22.77;63.33;99841.98;106103;1271;25359;-53
2022/06/25 07:08:43;;;;;;;5.20;1.30;;;;;;;22.90;63.02;99846.13;106322;1271;24197;-58
2022/06/25 07:11:31;;;;;;;6.60;1.60;;;;;;;22.98;62.43;99841.58;105770;1271;25294;-53
2022/06/25 07:14:05;;;;;;;10.70;1.40;;;;;;;23.09;62.30;99842.48;105752;1271;23067;-53
2022/06/25 07:16:38;;;;;;;6.20;1.30;;;;;;;23.24;62.23;99849.02;105930;1271;25467;-51
2022/06/25 07:19:10;;;;;;;9.30;1.80;;;;;;;23.41;62.07;99846.87;106088;1271;24227;-52
2022/06/25 07:21:43;;;;;;;4.80;1.10;;;;;;;23.57;61.61;99841.34;106150;1270;24252;-53
2022/06/25 07:24:15;;;;;;;3.80;1.20;;;;;;;23.62;60.40;99837.63;106368;1270;22541;-50
2022/06/25 07:26:47;;;;;;;6.90;1.50;;;;;;;23.64;60.69;99833.67;106901;1271;24248;-51
2022/06/25 07:29:23;;;;;;;5.40;1.10;;;;;;;23.75;60.40;99835.06;105888;1270;26487;-54
2022/06/25 07:31:57;;;;;;;5.30;1.30;;;;;;;23.83;59.60;99828.62;106354;1271;23181;-53
2022/06/25 07:34:29;;;;;;;4.40;1.10;;;;;;;23.90;59.38;99830.02;107932;1270;22482;-53
2022/06/25 07:37:05;;;;;;;3.60;1.00;;;;;;;23.97;59.38;99827.42;106938;1270;25360;-52
2022/06/25 07:39:44;;;;;;;5.20;1.30;;;;;;;24.09;59.26;99836.33;107538;1270;27770;-53
2022/06/25 07:42:18;;;;;;;6.00;1.10;;;;;;;24.20;58.93;99840.95;106722;1270;26606;-52
2022/06/25 07:44:50;;;;;;;5.10;1.20;;;;;;;24.27;58.50;99843.55;106753;1270;22646;-53
2022/06/25 07:47:26;;;;;;;6.10;1.50;;;;;;;24.32;58.06;99845.40;106660;1271;22522;-53
2022/06/25 07:52:51;;;;;;;5.00;1.30;;;;;;;24.38;57.44;99851.54;105531;1275;22634;-50
2022/06/25 07:55:26;;;;;;;7.10;1.10;;;;;;;24.45;56.95;99855.42;105456;1274;22548;-51
2022/06/25 07:57:58;;;;;;;3.20;1.10;;;;;;;24.52;56.88;99853.27;106096;1275;22481;-53
2022/06/25 08:00:33;;;;;;;4.90;1.20;;;;;;;24.60;56.60;99853.95;106422;1274;22599;-51
2022/06/25 08:03:08;;;;;;;3.70;1.00;;;;;;;24.70;56.37;99857.52;106071;1275;22491;-53
2022/06/25 08:05:48;;;;;;;5.40;0.90;;;;;;;24.82;56.29;99859.36;105704;1274;22591;-49
2022/06/25 08:08:21;;;;;;;7.20;1.10;;;;;;;24.98;56.06;99863.11;105630;1274;25511;-50
2022/06/25 08:10:53;;;;;;;4.20;1.00;;;;;;;25.10;55.48;99870.58;106342;1274;25302;-50
2022/06/25 08:13:26;;;;;;;5.00;1.30;;;;;;;25.25;55.50;99874.39;105966;1274;22531;-52
2022/06/25 08:15:59;;;;;;;4.70;1.00;;;;;;;25.42;55.06;99876.48;105357;1274;25302;-55
2022/06/25 08:18:32;;;;;;;4.30;1.10;;;;;;;25.55;54.81;99876.85;105452;1276;26514;-52
2022/06/25 08:21:04;;;;;;;6.30;1.30;;;;;;;25.70;54.71;99873.86;105535;1274;22704;-55
2022/06/25 08:23:37;;;;;;;6.30;1.60;;;;;;;25.85;54.43;99873.40;105453;1275;23590;-54
2022/06/25 08:26:10;;;;;;;5.50;1.40;;;;;;;25.99;54.00;99874.94;105579;1274;25255;-50
2022/06/25 08:28:44;;;;;;;3.70;1.10;;;;;;;26.08;53.82;99873.25;105983;1275;22699;-53
2022/06/25 08:31:16;;;;;;;6.00;1.20;;;;;;;26.17;53.68;99869.20;107859;1270;25361;-55
2022/06/25 08:33:48;;;;;;;4.40;1.30;;;;;;;26.27;53.60;99872.30;105988;1271;24429;-54
2022/06/25 08:36:22;;;;;;;5.50;1.40;;;;;;;26.37;53.34;99874.05;105922;1271;24315;-54
2022/06/25 08:38:54;;;;;;;5.00;1.40;;;;;;;26.48;53.28;99871.51;107548;1270;25502;-55
2022/06/25 08:41:27;;;;;;;9.00;1.40;;;;;;;26.59;53.15;99873.01;107342;1270;22533;-52
2022/06/25 08:44:02;;;;;;;3.70;1.20;;;;;;;26.66;52.82;99871.27;106023;1271;22729;-53
2022/06/25 08:46:34;;;;;;;4.10;1.30;;;;;;;26.73;52.42;99871.66;106530;1270;25261;-50
2022/06/25 08:49:06;;;;;;;5.10;1.30;;;;;;;26.78;52.22;99868.21;106089;1270;22471;-50
2022/06/25 08:51:38;;;;;;;3.40;1.30;;;;;;;26.72;51.59;99870.60;109015;1270;22560;-53
2022/06/25 08:54:11;;;;;;;5.60;1.60;;;;;;;26.58;51.34;99870.50;106140;1271;25502;-54
2022/06/25 08:56:43;;;;;;;3.00;1.20;;;;;;;26.57;51.67;99870.45;106571;1271;24249;-52
2022/06/25 08:59:15;;;;;;;5.00;1.40;;;;;;;26.67;51.52;99873.08;106786;1270;24290;-51
2022/06/25 09:01:48;;;;;;;5.00;1.20;;;;;;;26.81;51.38;99875.17;106167;1271;22548;-53
2022/06/25 09:04:19;;;;;;;4.80;1.40;;;;;;;26.87;51.00;99870.36;105892;1271;22762;-52
2022/06/25 09:06:52;;;;;;;7.20;1.40;;;;;;;26.98;51.10;99874.44;105893;1271;26606;-48
2022/06/25 09:09:24;;;;;;;5.60;1.80;;;;;;;27.10;50.96;99874.67;105808;1270;24407;-51
2022/06/25 09:12:02;;;;;;;6.70;1.30;;;;;;;27.17;50.10;99867.27;106652;1260;24279;-63
2022/06/25 09:14:35;;;;;;;4.10;1.20;;;;;;;27.10;49.96;99871.05;106176;1269;23445;-64
2022/06/25 09:17:10;;;;;;;5.60;1.20;;;;;;;27.09;49.96;99868.70;106154;1270;27669;-64
2022/06/25 09:19:43;;;;;;;6.00;1.70;;;;;;;27.13;49.74;99865.30;106018;1270;25339;-64
2022/06/25 09:22:17;;;;;;;5.00;1.60;;;;;;;27.25;49.51;99870.89;106080;1269;22942;-64
2022/06/25 09:24:51;;;;;;;5.10;1.20;;;;;;;27.36;49.03;99874.55;106050;1270;25248;-65
2022/06/25 09:27:35;;;;;;;7.30;1.60;;;;;;;27.43;48.81;99874.78;106119;1271;22548;-63
2022/06/25 09:30:12;;;;;;;6.10;1.30;;;;;;;27.47;48.72;99870.91;105998;1270;22554;-64
2022/06/25 09:32:50;;;;;;;4.80;1.30;;;;;;;27.56;48.51;99869.71;106056;1271;22568;-64
2022/06/25 09:35:34;;;;;;;3.80;1.50;;;;;;;27.63;48.09;99868.98;106168;1271;25326;-65
2022/06/25 09:38:07;;;;;;;8.90;1.50;;;;;;;27.67;47.92;99868.64;106089;1271;22530;-64
2022/06/25 09:40:40;;;;;;;9.00;2.30;;;;;;;27.75;47.62;99868.95;105980;1270;22630;-65
2022/06/25 09:43:16;;;;;;;6.30;1.60;;;;;;;27.86;47.26;99872.20;106061;1271;23747;-64
2022/06/25 09:45:49;;;;;;;6.50;1.60;;;;;;;27.95;47.11;99874.59;106132;1271;23192;-65
2022/06/25 09:48:22;;;;;;;7.80;1.70;;;;;;;28.03;46.92;99875.98;106134;1271;22558;-65
2022/06/25 09:51:11;;;;;;;7.30;1.50;;;;;;;28.08;46.34;99876.95;105897;1270;22522;-64
2022/06/25 09:53:50;;;;;;;4.60;1.30;;;;;;;28.12;45.87;99878.73;106608;1271;24428;-64
2022/06/25 09:56:26;;;;;;;8.10;1.30;;;;;;;28.17;46.21;99883.59;106128;1271;24253;-64
2022/06/25 09:58:58;;;;;;;7.00;1.90;;;;;;;28.26;46.14;99881.79;106243;1271;22544;-64
2022/06/25 10:01:32;;;;;;;5.40;1.40;;;;;;;28.35;45.88;99881.23;106192;1271;24224;-64
2022/06/25 10:04:05;;;;;;;7.50;1.40;;;;;;;28.40;45.52;99880.34;106134;1271;23212;-64
2022/06/25 10:06:39;;;;;;;7.70;1.40;;;;;;;28.45;45.52;99879.63;106198;1271;22564;-64
2022/06/25 10:09:12;;;;;;;5.60;1.50;;;;;;;28.53;45.20;99881.70;106196;1271;23321;-64
2022/06/25 10:11:44;;;;;;;5.60;1.60;;;;;;;28.60;44.87;99878.84;106243;1271;22554;-64
2022/06/25 10:14:16;;;;;;;7.90;1.50;;;;;;;28.62;44.77;99881.91;106164;1271;24372;-62
2022/06/25 10:16:48;;;;;;;5.40;1.40;;;;;;;28.67;44.74;99881.90;106187;1271;24275;-64
2022/06/25 10:19:21;;;;;;;7.10;2.00;;;;;;;28.70;44.18;99877.52;106109;1271;23327;-64
2022/06/25 10:21:54;;;;;;;5.60;1.30;;;;;;;28.71;44.17;99878.73;105977;1270;25250;-65
2022/06/25 10:24:27;;;;;;;4.50;1.50;;;;;;;28.74;44.11;99872.79;106085;1271;22549;-64
2022/06/25 10:26:58;;;;;;;6.70;2.10;;;;;;;28.76;43.61;99877.09;106215;1271;25366;-65
2022/06/25 10:29:31;;;;;;;7.40;1.50;;;;;;;28.71;43.40;99873.42;106043;1270;24325;-64
2022/06/25 10:32:19;;;;;;;6.50;1.70;;;;;;;28.73;43.67;99873.16;106187;1270;22589;-64
2022/06/25 10:35:00;;;;;;;8.10;1.60;;;;;;;28.79;43.43;99876.02;106264;1271;25423;-65
2022/06/25 10:38:08;;;;;;;6.70;1.50;;;;;;;28.84;43.50;99872.44;106304;1271;22548;-65
2022/06/25 10:42:58;;;;;;;6.80;1.60;;;;;;;28.91;43.33;99872.48;105832;1271;27219;-65
2022/06/25 10:43:54;;;;;;;6.30;1.60;;;;;;;29.02;43.60;99869.17;106081;1271;24224;-65
2022/06/25 10:46:36;;;;;;;6.70;1.40;;;;;;;29.12;43.28;99871.48;106276;1271;25392;-64
2022/06/25 10:49:11;;;;;;;5.20;1.50;;;;;;;29.21;43.05;99864.17;106077;1271;22653;-65
2022/06/25 10:51:49;;;;;;;5.10;1.40;;;;;;;29.24;42.78;99863.64;106160;1271;23163;-66
2022/06/25 10:54:40;;;;;;;5.90;1.50;;;;;;;29.21;42.54;99868.34;106140;1271;22530;-65
2022/06/25 10:57:12;;;;;;;6.70;1.80;;;;;;;29.20;42.48;99863.09;106093;1271;24261;-65
2022/06/25 10:59:47;;;;;;;5.30;1.90;;;;;;;29.24;42.17;99863.52;106198;1271;25292;-64
2022/06/25 11:02:23;;;;;;;5.10;1.70;;;;;;;29.33;42.48;99862.52;106128;1271;22544;-65
2022/06/25 11:04:58;;;;;;;8.40;1.50;;;;;;;29.44;42.51;99861.96;106109;1271;24319;-64
2022/06/25 11:07:35;;;;;;;7.00;1.70;;;;;;;29.54;42.23;99867.65;106369;1270;24229;-65
2022/06/25 11:10:08;;;;;;;4.50;1.30;;;;;;;29.56;41.58;99864.77;106072;1271;25312;-64
2022/06/25 11:12:40;;;;;;;5.60;1.70;;;;;;;29.55;41.61;99862.52;106291;1271;22523;-65
2022/06/25 11:15:14;;;;;;;6.10;2.00;;;;;;;29.56;41.21;99865.15;106110;1271;23986;-65
2022/06/25 11:17:46;;;;;;;6.60;1.80;;;;;;;29.55;41.17;99870.45;106228;1271;25427;-65
2022/06/25 11:20:17;;;;;;;6.20;1.60;;;;;;;29.46;41.10;99871.16;106232;1271;25318;-65
2022/06/25 11:22:50;;;;;;;7.20;2.90;;;;;;;29.45;41.26;99867.75;106127;1271;22533;-65
2022/06/25 11:30:59;;;;;;;;;;;;;;;29.33;41.19;99865.99;106093;1271;26509;-65
2022/06/25 11:33:32;;;;;;;6.30;1.80;;;;;;;29.36;41.40;99869.05;105957;1271;22548;-66
2022/06/25 11:36:11;;;;;;;4.10;1.70;;;;;;;29.40;41.32;99863.15;106124;1271;25361;-66
2022/06/25 11:38:44;;;;;;;5.70;1.80;;;;;;;29.44;41.14;99866.70;106193;1271;22508;-66
2022/06/25 11:41:22;;;;;;;5.20;1.70;;;;;;;29.45;40.74;99861.60;106149;1270;22544;-65
2022/06/25 11:43:54;;;;;;;8.90;1.90;;;;;;;29.46;40.81;99863.06;106235;1271;24389;-65
2022/06/25 11:46:26;;;;;;;6.90;1.50;;;;;;;29.51;40.92;99858.84;106117;1271;22542;-64
2022/06/25 11:48:58;;;;;;;6.80;1.50;;;;;;;29.56;40.57;99861.88;106013;1271;25324;-64
2022/06/25 11:51:30;;;;;;;12.50;5.70;;;;;;;29.58;40.21;99858.11;107110;1271;24351;-64
2022/06/25 11:54:08;;;;;;;7.30;1.80;;;;;;;29.62;40.41;99862.07;107844;1271;22551;-64
2022/06/25 11:56:46;;;;;;;7.30;1.80;;;;;;;29.70;40.68;99860.89;105951;1271;22561;-64
2022/06/25 11:59:25;;;;;;;8.00;1.60;;;;;;;29.80;40.15;99860.69;106201;1271;22600;-64
2022/06/25 12:01:58;;;;;;;5.30;1.80;;;;;;;29.91;40.12;99858.36;106087;1271;24695;-64
2022/06/25 12:04:31;;;;;;;5.30;1.50;;;;;;;30.03;39.67;99862.02;106303;1271;25435;-65
2022/06/25 12:07:03;;;;;;;6.10;1.70;;;;;;;30.07;39.78;99859.83;106031;1271;24522;-65
2022/06/25 12:09:35;;;;;;;6.80;1.70;;;;;;;30.09;39.74;99859.05;106144;1271;22550;-65